createdAt,value
2018-02-24T00:00:26.187Z,99.90
2018-02-24T00:02:54.567Z,99.90
2018-02-24T00:07:52.990Z,99.90
2018-02-24T05:29:49.918Z,99.90
2018-02-24T05:34:49.236Z,99.90
2018-02-24T05:39:47.663Z,99.90
2018-02-24T07:24:35.731Z,99.90
2018-02-24T07:29:34.826Z,99.90
2018-02-24T08:46:55.731Z,99.90
2018-02-24T08:49:24.882Z,99.90
2018-02-24T09:36:50.789Z,99.90
2018-02-24T09:44:19.398Z,99.90
2018-02-24T11:06:41.118Z,99.90
2018-02-24T11:09:10.215Z,99.90
2018-02-24T11:14:08.827Z,98.70
2018-02-24T11:16:38.394Z,99.90
2018-02-24T11:19:07.127Z,95.50
2018-02-24T11:41:34.783Z,97.50
2018-02-24T12:11:30.864Z,91.20
2018-02-24T12:31:28.330Z,86.40
2018-02-24T12:33:57.818Z,81.90
2018-02-24T12:36:27.323Z,90.00
2018-02-24T12:41:26.170Z,77.00
2018-02-24T12:43:55.669Z,91.70
2018-02-24T12:48:54.142Z,75.70
2018-02-24T12:51:23.719Z,82.90
2018-02-24T12:53:53.219Z,78.90
2018-02-24T12:56:22.731Z,70.10
2018-02-24T12:58:51.622Z,82.80
2018-02-24T13:01:20.356Z,88.20
2018-02-24T13:06:19.621Z,81.20
2018-02-24T13:11:18.526Z,68.50
2018-02-24T13:13:47.655Z,76.80
2018-02-24T13:16:16.410Z,89.30
2018-02-24T13:18:45.600Z,71.50
2018-02-24T13:21:14.811Z,72.40
2018-02-24T13:23:43.526Z,78.20
2018-02-24T13:26:12.663Z,72.90
2018-02-24T13:28:41.415Z,67.10
2018-02-24T13:43:39.758Z,78.00
2018-02-24T13:51:09.845Z,79.80
2018-02-24T13:53:38.958Z,70.50
2018-02-24T13:56:09.100Z,79.20
2018-02-24T13:58:39.003Z,76.70
2018-02-24T14:01:08.093Z,68.60
2018-02-24T14:03:38.082Z,78.20
2018-02-24T14:06:08.090Z,70.80
2018-02-24T14:08:38.136Z,70.40
2018-02-24T14:11:07.595Z,64.40
2018-02-24T14:13:37.510Z,64.70
2018-02-24T14:18:36.931Z,66.90
2018-02-24T14:21:06.027Z,71.60
2018-02-24T14:23:35.699Z,65.20
2018-02-24T14:28:35.486Z,73.30
2018-02-24T14:31:05.047Z,75.90
2018-02-24T14:33:33.958Z,75.00
2018-02-24T14:36:03.602Z,74.00
2018-02-24T14:38:32.969Z,71.30
2018-02-24T14:41:02.556Z,72.80
2018-02-24T14:43:31.419Z,77.80
2018-02-24T14:46:01.375Z,74.10
2018-02-24T14:48:30.497Z,71.70
2018-02-24T14:50:59.579Z,70.70
2018-02-24T14:53:28.703Z,76.60
2018-02-24T14:55:57.411Z,72.80
2018-02-24T14:58:26.539Z,77.00
2018-02-24T15:00:55.252Z,67.70
2018-02-24T15:03:23.740Z,79.50
2018-02-24T15:08:23.298Z,77.30
2018-02-24T15:10:52.793Z,78.10
2018-02-24T15:13:21.593Z,80.40
2018-02-24T15:15:50.704Z,80.20
2018-02-24T15:18:19.400Z,85.20
2018-02-24T15:20:48.339Z,86.70
2018-02-24T15:23:17.801Z,82.10
2018-02-24T15:25:46.727Z,82.40
2018-02-24T15:28:15.275Z,85.80
2018-02-24T15:30:44.427Z,90.50
2018-02-24T15:33:13.352Z,92.40
2018-02-24T15:35:42.296Z,90.30
2018-02-24T15:38:11.395Z,92.10
2018-02-24T15:40:40.523Z,94.60
2018-02-24T15:43:09.623Z,93.00
2018-02-24T15:45:38.335Z,92.40
2018-02-24T15:48:07.572Z,96.00
2018-02-24T15:53:06.454Z,94.60
2018-02-24T15:55:35.622Z,97.50
2018-02-24T15:58:04.726Z,96.30
2018-02-24T16:00:33.423Z,98.10
2018-02-24T16:13:01.243Z,99.90
2018-02-24T16:15:30.342Z,99.90
2018-02-24T16:17:59.574Z,99.90
2018-02-24T16:25:28.211Z,99.90
2018-02-24T16:30:27.422Z,99.90
2018-02-24T16:32:56.334Z,99.90
2018-02-24T16:45:24.461Z,99.90
2018-02-24T16:47:53.563Z,99.90
2018-02-24T16:50:22.278Z,99.90
2018-02-24T16:52:51.747Z,99.90
2018-02-24T16:55:20.462Z,99.90
2018-02-24T16:57:49.675Z,99.90
2018-02-24T17:00:19.176Z,99.90
2018-02-24T17:02:48.663Z,99.90
2018-02-24T17:10:17.447Z,99.90
2018-02-24T17:12:46.555Z,99.90
2018-02-24T17:17:44.879Z,99.90
2018-02-24T17:20:13.710Z,99.90
2018-02-24T17:22:42.989Z,99.90
2018-02-24T17:25:12.136Z,99.90
2018-02-24T17:27:41.434Z,99.90
2018-02-24T17:30:10.531Z,99.90
2018-02-24T17:32:39.662Z,99.90
2018-02-24T17:35:08.779Z,99.90
2018-02-24T17:37:38.074Z,99.90
2018-02-24T17:40:07.590Z,99.90
2018-02-24T17:42:36.503Z,99.90
2018-02-24T17:45:05.612Z,99.90
2018-02-24T17:47:35.078Z,99.90
2018-02-24T17:50:04.219Z,99.90
2018-02-24T17:52:35.161Z,99.90
2018-02-24T17:55:04.672Z,99.90
2018-02-24T17:57:33.774Z,99.90
2018-02-24T18:00:03.265Z,99.90
2018-02-24T18:02:32.495Z,99.90
2018-02-24T18:05:01.626Z,99.90
2018-02-24T18:07:30.778Z,99.90
2018-02-24T18:09:59.607Z,99.90
2018-02-24T18:12:29.119Z,99.90
2018-02-24T18:14:58.595Z,99.90
2018-02-24T18:17:27.706Z,99.90
2018-02-24T18:19:56.428Z,99.90
2018-02-24T18:22:25.546Z,99.90
2018-02-24T18:24:54.262Z,99.90
2018-02-24T18:27:23.104Z,99.90
2018-02-24T18:29:51.974Z,99.90
2018-02-24T18:39:49.843Z,99.90
2018-02-24T18:47:18.125Z,99.90
2018-02-24T18:49:47.239Z,99.90
2018-02-24T18:52:16.350Z,99.90
2018-02-24T18:54:46.203Z,99.90
2018-02-24T18:57:15.301Z,99.90
2018-02-24T18:59:44.471Z,99.90
2018-02-24T19:02:13.939Z,99.90
2018-02-24T19:07:13.139Z,99.90
2018-02-24T19:17:12.044Z,99.90
2018-02-24T19:19:41.108Z,99.90
2018-02-24T19:22:10.215Z,99.90
2018-02-24T19:24:39.352Z,99.90
2018-02-24T19:27:08.511Z,99.90
2018-02-24T19:29:37.140Z,99.90
2018-02-24T19:32:06.303Z,99.90
2018-02-24T19:37:05.540Z,99.90
2018-02-24T19:39:34.403Z,99.90
2018-02-24T19:44:32.839Z,99.90
2018-02-24T19:52:01.493Z,99.90
2018-02-24T19:54:30.985Z,99.90
2018-02-24T19:57:00.559Z,99.90
2018-02-24T19:59:29.272Z,99.90
2018-02-24T20:09:27.714Z,99.90
2018-02-24T20:14:27.152Z,99.90
2018-02-24T20:16:56.270Z,99.90
2018-02-24T20:24:25.291Z,99.90
2018-02-24T20:26:54.821Z,99.90
2018-02-24T20:29:23.531Z,99.90
2018-02-24T20:31:52.639Z,99.90
2018-02-24T20:34:22.132Z,99.90
2018-02-24T20:36:51.307Z,99.90
2018-02-24T20:39:20.471Z,99.90
2018-02-24T20:41:49.198Z,99.90
2018-02-24T20:44:18.294Z,99.90
2018-02-24T20:59:15.520Z,99.90
2018-02-24T21:01:44.057Z,99.90
2018-02-24T21:04:12.767Z,99.90
2018-02-24T21:16:41.093Z,99.90
2018-02-24T21:19:10.695Z,99.90
2018-02-24T21:24:09.135Z,99.90
2018-02-24T21:26:38.675Z,99.90
2018-02-24T21:29:07.791Z,99.90
2018-02-24T21:31:36.959Z,99.90
2018-02-24T21:34:05.798Z,99.90
2018-02-24T21:36:34.938Z,99.90
2018-02-24T21:39:03.503Z,99.90
2018-02-24T21:54:02.686Z,99.90
2018-02-24T21:56:32.703Z,99.90
2018-02-24T21:59:01.475Z,99.90
2018-02-24T22:01:30.266Z,99.90
2018-02-24T22:16:28.794Z,99.90
2018-02-24T22:38:56.695Z,99.90
2018-02-24T22:41:26.205Z,99.90
2018-02-24T22:43:55.340Z,99.90
2018-02-24T22:46:24.068Z,99.90
2018-02-24T22:48:58.512Z,99.90
2018-02-24T22:51:28.052Z,99.90
2018-02-24T22:53:56.896Z,99.90
2018-02-24T22:56:26.417Z,99.90
2018-02-24T22:58:55.983Z,99.90
2018-02-24T23:01:24.704Z,99.90
2018-02-24T23:03:54.183Z,99.90
2018-02-24T23:06:22.959Z,99.90
2018-02-24T23:08:51.674Z,99.90
2018-02-24T23:11:20.599Z,99.90
2018-02-24T23:13:50.051Z,99.90
2018-02-24T23:16:19.003Z,99.90
2018-02-24T23:18:47.712Z,99.90
2018-02-24T23:21:17.274Z,99.90
2018-02-24T23:23:46.763Z,99.90
2018-02-24T23:26:15.522Z,99.90
2018-02-24T23:28:44.264Z,99.90
2018-02-24T23:31:13.742Z,99.90
2018-02-24T23:33:42.570Z,99.90
2018-02-24T23:36:11.667Z,99.90
2018-02-24T23:38:41.048Z,99.90
2018-02-24T23:41:10.537Z,99.90
2018-02-24T23:43:39.286Z,99.90
2018-02-24T23:46:08.408Z,99.90
2018-02-24T23:48:36.943Z,99.90
2018-02-24T23:51:06.484Z,99.90
2018-02-24T23:53:34.988Z,99.90
2018-02-24T23:56:03.538Z,99.90
2018-02-24T23:58:32.370Z,99.90
